createdAt,value
2022-10-03T00:04:28.646Z,96161.88
2022-10-03T00:09:50.870Z,96148.19
2022-10-03T00:15:04.115Z,96159.34
2022-10-03T00:20:12.652Z,96150.59
2022-10-03T00:25:55.353Z,96145.78
2022-10-03T00:31:13.311Z,96160.63
2022-10-03T00:36:38.421Z,96132.31
2022-10-03T00:42:07.917Z,96146.84
2022-10-03T00:47:34.625Z,96152.75
2022-10-03T00:53:11.701Z,96113.91
2022-10-03T00:58:39.499Z,96135.84
2022-10-03T01:03:56.171Z,96130.09
2022-10-03T01:09:18.249Z,96129.56
2022-10-03T01:14:31.645Z,96122.06
2022-10-03T01:19:51.296Z,96119.06
2022-10-03T01:25:16.794Z,96097.34
2022-10-03T01:30:24.878Z,96102.72
2022-10-03T01:35:40.561Z,96106.16
2022-10-03T01:41:02.417Z,96099.03
2022-10-03T01:46:35.088Z,96109.47
2022-10-03T01:51:48.537Z,96108.00
2022-10-03T01:57:29.694Z,96115.25
2022-10-03T02:02:40.229Z,96102.31
2022-10-03T02:08:03.732Z,96114.72
2022-10-03T02:13:15.138Z,96086.13
2022-10-03T02:18:27.988Z,96101.75
2022-10-03T02:23:33.302Z,96106.28
2022-10-03T02:28:55.857Z,96110.25
2022-10-03T02:34:33.784Z,96113.78
2022-10-03T02:40:26.585Z,96104.41
2022-10-03T02:45:59.134Z,96099.44
2022-10-03T02:51:21.206Z,96105.59
2022-10-03T02:56:42.041Z,96091.09
2022-10-03T03:01:53.085Z,96082.84
2022-10-03T03:07:32.717Z,96075.31
2022-10-03T03:12:59.721Z,96071.38
2022-10-03T03:18:26.720Z,96073.53
2022-10-03T03:24:07.408Z,96066.22
2022-10-03T03:29:24.776Z,96054.31
2022-10-03T03:34:34.474Z,96026.28
2022-10-03T03:40:07.139Z,96042.38
2022-10-03T03:45:31.224Z,96062.31
2022-10-03T03:50:57.554Z,96065.69
2022-10-03T03:56:24.010Z,96068.81
2022-10-03T04:01:46.680Z,96042.47
2022-10-03T04:06:57.964Z,96055.75
2022-10-03T04:12:10.382Z,96062.16
2022-10-03T04:17:46.167Z,96040.44
2022-10-03T04:22:58.344Z,96077.97
2022-10-03T04:28:44.667Z,96072.91
2022-10-03T04:34:34.550Z,96076.78
2022-10-03T04:39:51.667Z,96074.91
2022-10-03T04:45:25.450Z,96072.91
2022-10-03T04:51:00.495Z,96067.53
2022-10-03T04:56:03.133Z,96089.25
2022-10-03T05:01:08.110Z,96090.38
2022-10-03T05:06:25.235Z,96091.75
2022-10-03T05:11:49.967Z,96092.00
2022-10-03T05:17:15.083Z,96074.69
2022-10-03T05:22:43.702Z,96087.13
2022-10-03T05:28:28.989Z,96073.94
2022-10-03T05:33:47.043Z,96058.41
2022-10-03T05:39:15.390Z,96031.56
2022-10-03T05:44:31.985Z,96056.91
2022-10-03T05:49:43.208Z,96085.28
2022-10-03T05:55:02.740Z,96082.81
2022-10-03T06:00:15.210Z,96078.72
2022-10-03T06:05:28.994Z,96059.31
2022-10-03T06:11:01.608Z,96072.56
2022-10-03T06:16:21.932Z,96022.53
2022-10-03T06:21:43.051Z,96057.97
2022-10-03T06:27:09.570Z,96059.22
2022-10-03T06:32:48.357Z,96064.59
2022-10-03T06:38:09.470Z,96049.41
2022-10-03T06:43:46.388Z,96041.88
2022-10-03T06:49:13.376Z,96047.00
2022-10-03T06:54:45.035Z,96055.59
2022-10-03T07:00:20.151Z,96056.00
2022-10-03T07:05:48.394Z,96047.50
2022-10-03T07:11:05.872Z,96074.28
2022-10-03T07:16:36.427Z,96071.50
2022-10-03T07:38:57.113Z,96094.34
2022-10-03T07:44:07.091Z,96056.81
2022-10-03T07:49:43.243Z,96090.75
2022-10-03T07:55:13.076Z,96089.31
2022-10-03T08:00:25.829Z,96071.63
2022-10-03T08:05:58.874Z,96096.28
2022-10-03T08:11:27.057Z,96094.31
2022-10-03T08:17:11.453Z,96107.22
2022-10-03T08:22:43.258Z,96107.28
2022-10-03T08:27:59.053Z,96100.34
2022-10-03T08:33:33.423Z,96083.72
2022-10-03T08:39:00.709Z,96124.88
2022-10-03T08:44:19.184Z,96118.06
2022-10-03T08:50:05.103Z,96117.41
2022-10-03T08:55:46.110Z,96133.53
2022-10-03T09:01:19.275Z,96087.06
2022-10-03T09:07:19.323Z,96138.00
2022-10-03T09:12:32.371Z,96124.38
2022-10-03T09:17:53.289Z,96148.41
2022-10-03T09:23:10.200Z,96103.25
2022-10-03T09:28:25.657Z,96128.50
2022-10-03T09:39:56.387Z,96116.59
2022-10-03T09:45:27.381Z,96095.97
2022-10-03T09:56:33.241Z,96105.28
2022-10-03T10:02:00.214Z,96100.78
2022-10-03T10:07:25.915Z,96083.78
2022-10-03T10:13:10.013Z,96073.03
2022-10-03T10:18:50.129Z,96092.44
2022-10-03T10:24:25.708Z,96085.66
2022-10-03T10:30:09.436Z,96092.84
2022-10-03T10:36:08.949Z,96075.88
2022-10-03T10:41:57.388Z,96087.03
2022-10-03T10:47:02.860Z,96116.78
2022-10-03T10:52:42.721Z,96114.28
2022-10-03T10:58:22.090Z,96099.97
2022-10-03T11:03:46.365Z,96101.22
2022-10-03T11:09:19.547Z,96099.75
2022-10-03T11:14:44.764Z,96094.47
2022-10-03T11:20:14.759Z,96090.53
2022-10-03T11:25:54.620Z,96093.75
2022-10-03T11:31:28.456Z,96078.91
2022-10-03T11:37:16.765Z,96027.47
2022-10-03T11:43:32.697Z,96081.91
2022-10-03T11:48:49.863Z,96069.91
2022-10-03T11:54:26.266Z,96079.91
2022-10-03T11:59:39.086Z,96081.09
2022-10-03T12:04:53.777Z,96076.88
2022-10-03T12:10:18.310Z,96072.72
2022-10-03T12:15:35.518Z,96074.00
2022-10-03T12:20:56.252Z,96077.34
2022-10-03T12:26:03.453Z,96048.19
2022-10-03T12:31:26.987Z,96055.69
2022-10-03T12:37:16.886Z,96048.50
2022-10-03T12:55:34.395Z,95994.72
2022-10-03T13:01:00.918Z,96050.81
2022-10-03T13:06:09.438Z,96038.63
2022-10-03T13:11:29.660Z,96021.50
2022-10-03T13:16:47.677Z,96032.66
2022-10-03T13:22:03.873Z,96003.25
2022-10-03T13:27:19.841Z,95992.00
2022-10-03T13:32:38.351Z,96011.09
2022-10-03T13:38:07.964Z,96035.25
2022-10-03T13:43:15.751Z,95992.78
2022-10-03T13:48:30.120Z,96004.69
2022-10-03T13:54:09.493Z,96041.00
2022-10-03T13:59:38.544Z,96021.47
2022-10-03T14:04:59.145Z,95999.25
2022-10-03T14:10:07.708Z,96037.84
2022-10-03T14:15:16.176Z,96027.06
2022-10-03T14:20:46.960Z,95982.41
2022-10-03T14:26:00.452Z,96047.38
2022-10-03T14:31:25.679Z,96041.84
2022-10-03T14:36:52.606Z,95998.28
2022-10-03T14:41:55.073Z,96045.00
2022-10-03T14:47:16.462Z,95982.88
2022-10-03T14:52:43.402Z,95970.66
2022-10-03T14:58:11.901Z,96017.31
2022-10-03T15:03:17.570Z,96057.25
2022-10-03T15:08:21.396Z,96042.72
2022-10-03T15:13:25.340Z,96031.41
2022-10-03T15:18:27.969Z,95996.97
2022-10-03T15:23:39.971Z,96038.94
2022-10-03T15:28:50.320Z,96064.00
2022-10-03T15:39:24.868Z,96037.66
2022-10-03T15:44:42.299Z,96037.28
2022-10-03T15:49:56.256Z,96028.19
2022-10-03T15:55:11.470Z,96059.25
2022-10-03T16:00:29.021Z,96060.44
2022-10-03T16:05:31.477Z,96045.19
2022-10-03T16:10:46.157Z,96078.84
2022-10-03T16:16:09.253Z,96091.97
2022-10-03T16:21:37.591Z,96101.25
2022-10-03T16:26:53.044Z,96082.34
2022-10-03T16:32:03.289Z,96058.59
2022-10-03T16:37:17.917Z,96062.41
2022-10-03T16:42:29.355Z,96093.31
2022-10-03T16:52:54.646Z,96149.13
2022-10-03T16:58:09.247Z,96170.31
2022-10-03T17:03:24.318Z,96153.78
2022-10-03T17:08:41.865Z,96157.44
2022-10-03T17:13:47.491Z,96139.28
2022-10-03T17:19:17.421Z,96172.81
2022-10-03T17:24:49.286Z,96192.63
2022-10-03T17:30:27.306Z,96188.00
2022-10-03T17:35:53.557Z,96179.91
2022-10-03T17:41:48.950Z,96147.00
2022-10-03T17:47:24.801Z,96158.47
2022-10-03T17:52:30.085Z,96196.94
2022-10-03T17:57:38.853Z,96182.63
2022-10-03T18:03:02.854Z,96220.19
2022-10-03T18:08:41.289Z,96225.13
2022-10-03T18:14:40.951Z,96163.50
2022-10-03T18:20:51.272Z,96229.03
2022-10-03T18:27:01.014Z,96236.56
2022-10-03T18:32:40.686Z,96176.44
2022-10-03T18:38:29.655Z,96239.72
2022-10-03T18:43:51.936Z,96187.09
2022-10-03T18:49:34.074Z,96241.09
2022-10-03T18:55:13.194Z,96246.31
2022-10-03T19:00:20.599Z,96204.47
2022-10-03T19:05:36.012Z,96225.72
2022-10-03T19:10:51.386Z,96260.75
2022-10-03T19:16:18.168Z,96270.19
2022-10-03T19:21:22.830Z,96225.34
2022-10-03T19:26:35.513Z,96237.16
2022-10-03T19:31:44.313Z,96268.19
2022-10-03T19:36:50.800Z,96235.50
2022-10-03T19:42:19.289Z,96220.16
2022-10-03T19:47:35.949Z,96260.00
2022-10-03T19:52:42.495Z,96272.91
2022-10-03T19:58:00.231Z,96286.66
2022-10-03T20:03:41.574Z,96267.22
2022-10-03T20:09:08.708Z,96256.16
2022-10-03T20:14:17.250Z,96263.94
2022-10-03T20:19:26.168Z,96231.09
2022-10-03T20:24:32.693Z,96278.72
2022-10-03T20:29:40.648Z,96265.66
2022-10-03T20:34:51.799Z,96274.63
2022-10-03T20:39:57.449Z,96274.59
2022-10-03T20:45:07.135Z,96276.97
2022-10-03T20:50:28.273Z,96278.41
2022-10-03T20:55:56.399Z,96282.81
2022-10-03T21:01:04.750Z,96248.47
2022-10-03T21:06:20.357Z,96291.38
2022-10-03T21:11:26.652Z,96257.94
2022-10-03T21:16:38.885Z,96284.53
2022-10-03T21:21:47.675Z,96269.94
2022-10-03T21:27:00.439Z,96257.00
2022-10-03T21:32:14.712Z,96297.97
2022-10-03T21:37:26.247Z,96299.75
2022-10-03T21:42:35.607Z,96249.66
2022-10-03T21:47:59.127Z,96285.78
2022-10-03T21:53:15.353Z,96292.53
2022-10-03T21:58:46.109Z,96283.72
2022-10-03T22:04:00.917Z,96275.09
2022-10-03T22:09:06.396Z,96270.41
2022-10-03T22:14:43.858Z,96246.13
2022-10-03T22:19:53.078Z,96276.47
2022-10-03T22:25:07.890Z,96274.78
2022-10-03T22:30:15.262Z,96239.56
2022-10-03T22:35:52.191Z,96261.88
2022-10-03T22:40:58.093Z,96257.56
2022-10-03T22:46:00.721Z,96264.72
2022-10-03T22:51:07.213Z,96282.50
2022-10-03T22:56:33.218Z,96280.47
2022-10-03T23:01:39.917Z,96278.78
2022-10-03T23:06:51.204Z,96284.78
2022-10-03T23:11:57.768Z,96240.00
2022-10-03T23:17:27.810Z,96283.03
2022-10-03T23:22:34.704Z,96270.09
2022-10-03T23:27:45.998Z,96279.72
2022-10-03T23:32:48.063Z,96280.63
2022-10-03T23:37:50.965Z,96259.75
2022-10-03T23:43:05.400Z,96252.16
2022-10-03T23:48:12.084Z,96250.22
2022-10-03T23:53:39.757Z,96245.53
2022-10-03T23:58:42.087Z,96259.09
